Time;durP1;ratioP1;P1;durP2;ratioP2;P2;SDS_P1;SDS_P2;PMS_P1;PMS_P2;Temp;Humidity;BMP_temperature;BMP_pressure;BME280_temperature;BME280_humidity;BME280_pressure;Samples;Min_cycle;Max_cycle;Signal;HPM_P1;HPM_P2
2022/12/30 00:01:34;;;;;;;95.72;54.10;;;;;;;8.30;67.27;95409.28;4178329;28;20049;-77
2022/12/30 00:03:37;;;;;;;87.68;53.03;;;;;;;8.28;67.47;95416.44;4185748;28;20057;-76
2022/12/30 00:05:38;;;;;;;94.45;54.10;;;;;;;8.29;67.46;95408.47;4177451;28;20161;-74
2022/12/30 00:07:40;;;;;;;97.28;54.15;;;;;;;8.27;66.96;95399.94;4173270;28;20202;-73
2022/12/30 00:09:42;;;;;;;89.70;52.53;;;;;;;8.26;67.12;95402.66;4172605;28;20079;-75
2022/12/30 00:11:44;;;;;;;97.88;58.03;;;;;;;8.18;67.20;95405.94;4177333;28;20078;-74
2022/12/30 00:34:59;;;;;;;108.90;62.63;;;;;;;7.67;69.85;95419.66;4176642;28;20388;-77
2022/12/30 00:37:01;;;;;;;107.68;59.72;;;;;;;7.71;69.52;95421.91;4173298;28;20066;-76
2022/12/30 00:39:03;;;;;;;101.38;58.47;;;;;;;7.75;69.66;95427.72;4163118;28;20071;-75
2022/12/30 00:43:25;;;;;;;105.72;59.70;;;;;;;7.87;69.18;95426.72;4164519;28;20060;-74
2022/12/30 00:45:27;;;;;;;109.60;63.97;;;;;;;7.89;69.04;95414.34;4176360;28;20467;-77
2022/12/30 00:47:29;;;;;;;114.88;64.18;;;;;;;7.99;68.87;95430.91;4175462;28;20088;-75
2022/12/30 00:56:31;;;;;;;97.63;56.80;;;;;;;8.08;67.93;95416.28;4160358;28;20115;-77
2022/12/30 00:58:32;;;;;;;108.45;59.13;;;;;;;8.12;68.26;95422.91;4168876;28;20053;-76
2022/12/30 01:00:34;;;;;;;111.22;65.55;;;;;;;8.15;67.81;95420.06;4173865;28;20053;-74
2022/12/30 01:02:36;;;;;;;115.28;68.15;;;;;;;8.07;67.61;95422.47;4175333;28;20052;-76
2022/12/30 01:04:38;;;;;;;120.30;67.68;;;;;;;7.99;68.56;95414.44;4174214;28;20049;-73
2022/12/30 01:06:39;;;;;;;113.97;67.95;;;;;;;8.05;69.07;95423.56;4163753;28;20049;-75
2022/12/30 01:08:41;;;;;;;112.35;65.40;;;;;;;7.86;68.25;95422.44;4175224;28;20110;-74
2022/12/30 01:10:43;;;;;;;123.18;67.65;;;;;;;7.59;69.71;95428.94;4175740;28;20049;-73
2022/12/30 01:12:45;;;;;;;111.90;63.45;;;;;;;7.53;70.50;95421.59;4173695;28;20416;-76
2022/12/30 01:14:53;;;;;;;112.38;63.95;;;;;;;7.58;70.41;95421.25;4159859;28;20057;-74
2022/12/30 01:16:54;;;;;;;112.88;64.00;;;;;;;7.67;69.84;95427.50;4161310;28;20449;-75
2022/12/30 01:18:56;;;;;;;113.18;66.47;;;;;;;7.52;69.90;95426.94;4169779;28;20636;-76
2022/12/30 01:20:59;;;;;;;116.07;66.93;;;;;;;7.54;70.04;95419.81;4175771;28;20060;-74
2022/12/30 01:23:01;;;;;;;110.43;64.10;;;;;;;7.44;70.34;95424.09;4167362;28;20068;-74
2022/12/30 01:25:03;;;;;;;121.85;67.07;;;;;;;6.84;71.92;95431.38;4160497;28;20361;-78
2022/12/30 01:27:05;;;;;;;115.43;65.35;;;;;;;6.79;72.87;95418.72;4161113;28;20476;-78
2022/12/30 01:29:07;;;;;;;118.00;65.88;;;;;;;6.88;72.69;95419.78;4180498;28;20129;-77
2022/12/30 01:31:10;;;;;;;117.32;67.53;;;;;;;7.02;72.42;95424.75;4181642;28;20106;-75
2022/12/30 01:33:12;;;;;;;117.70;68.68;;;;;;;7.07;72.06;95416.59;4181097;28;20107;-77
2022/12/30 01:35:14;;;;;;;122.85;68.60;;;;;;;7.03;71.70;95404.75;4184052;28;20056;-77
2022/12/30 01:37:16;;;;;;;121.32;69.53;;;;;;;7.15;71.58;95407.22;4182394;28;20467;-73
2022/12/30 01:39:17;;;;;;;125.55;68.90;;;;;;;7.16;71.13;95410.66;4187958;28;20162;-75
2022/12/30 01:41:19;;;;;;;135.48;69.80;;;;;;;7.20;71.67;95404.25;4182052;28;20085;-73
2022/12/30 01:43:42;;;;;;;128.98;72.28;;;;;;;7.37;71.16;95408.94;4189493;28;20565;-76
2022/12/30 01:45:46;;;;;;;124.35;71.28;;;;;;;7.44;70.25;95398.84;4181422;28;20085;-75
2022/12/30 01:48:03;;;;;;;119.55;67.63;;;;;;;7.49;70.32;95399.34;4181092;28;20132;-74
2022/12/30 01:50:11;;;;;;;113.13;61.08;;;;;;;7.60;69.86;95403.69;4178794;28;20470;-77
2022/12/30 01:52:14;;;;;;;114.05;65.63;;;;;;;7.59;69.64;95400.25;4179629;28;20485;-74
2022/12/30 01:54:15;;;;;;;116.97;64.40;;;;;;;7.62;69.65;95401.78;4170689;28;20492;-75
2022/12/30 01:56:30;;;;;;;108.75;63.20;;;;;;;7.41;69.46;95406.13;4166567;28;20092;-77
2022/12/30 01:58:40;;;;;;;;;;;;;;;7.28;70.82;95409.69;4155154;28;20115;-76
2022/12/30 02:00:42;;;;;;;114.15;63.55;;;;;;;7.22;70.63;95402.34;4169725;28;20384;-74
2022/12/30 02:02:44;;;;;;;113.03;64.25;;;;;;;7.13;70.92;95411.72;4179676;28;20353;-75
2022/12/30 02:04:46;;;;;;;111.47;61.55;;;;;;;7.07;71.38;95406.97;4180960;28;20091;-74
2022/12/30 02:07:07;;;;;;;112.72;62.55;;;;;;;7.17;71.56;95401.91;4181333;28;20493;-72
2022/12/30 02:09:09;;;;;;;109.97;61.35;;;;;;;7.15;71.27;95396.78;4180888;28;20053;-74
2022/12/30 02:11:11;;;;;;;108.45;61.45;;;;;;;7.23;70.74;95393.59;4181863;28;20273;-75
2022/12/30 02:13:14;;;;;;;110.60;62.03;;;;;;;7.26;71.02;95395.94;4181239;28;20416;-75
2022/12/30 02:15:16;;;;;;;108.90;61.47;;;;;;;7.32;70.64;95399.84;4181342;28;20053;-76
2022/12/30 02:17:42;;;;;;;103.45;59.88;;;;;;;7.26;70.44;95395.94;4179911;28;20064;-75
2022/12/30 02:20:08;;;;;;;96.50;59.22;;;;;;;7.16;71.48;95400.22;4180839;28;20552;-74
2022/12/30 02:22:42;;;;;;;101.13;58.30;;;;;;;7.01;71.46;95398.81;4180464;28;20359;-77
2022/12/30 02:24:50;;;;;;;99.82;60.47;;;;;;;6.88;72.04;95405.00;4175954;28;20254;-76
2022/12/30 02:27:08;;;;;;;100.72;59.22;;;;;;;6.87;72.47;95402.53;4167513;28;20069;-76
2022/12/30 02:29:42;;;;;;;107.80;60.97;;;;;;;6.97;72.20;95406.88;4176422;28;20087;-74
2022/12/30 02:31:56;;;;;;;112.70;61.15;;;;;;;7.10;71.85;95400.72;4113887;28;20066;-73
2022/12/30 02:33:57;;;;;;;102.78;59.47;;;;;;;7.18;71.32;95390.50;4168317;28;20053;-75
2022/12/30 02:36:08;;;;;;;106.80;59.80;;;;;;;7.22;70.96;95394.53;4183813;28;20427;-76
2022/12/30 02:38:30;;;;;;;110.50;60.20;;;;;;;7.26;71.26;95400.34;4162531;28;20093;-75
2022/12/30 02:45:33;;;;;;;103.30;59.65;;;;;;;7.10;71.71;95398.13;4152515;28;20054;-74
2022/12/30 02:48:01;;;;;;;111.13;60.22;;;;;;;7.03;71.64;95392.53;4160155;28;20448;-75
2022/12/30 02:52:36;;;;;;;108.20;60.75;;;;;;;7.07;70.94;95387.94;4167704;28;20049;-75
2022/12/30 02:54:39;;;;;;;103.75;59.88;;;;;;;7.12;71.62;95388.38;4171098;28;20778;-74
2022/12/30 02:56:50;;;;;;;111.97;58.50;;;;;;;7.17;71.42;95394.06;4171876;28;20097;-74
2022/12/30 03:03:57;;;;;;;104.65;59.03;;;;;;;7.11;71.28;95384.97;4164749;28;20088;-76
2022/12/30 03:04:15;;;;;;;101.43;58.47;;;;;;;7.12;71.10;95381.41;4159412;28;20063;-76
2022/12/30 03:06:54;;;;;;;98.53;58.35;;;;;;;7.18;71.11;95393.13;4148119;28;20057;-74
2022/12/30 03:09:27;;;;;;;104.78;57.75;;;;;;;7.15;70.85;95399.41;4165660;28;20476;-75
2022/12/30 03:11:53;;;;;;;96.20;54.13;;;;;;;7.16;71.40;95400.22;4178381;28;20440;-74
2022/12/30 03:14:16;;;;;;;94.13;57.53;;;;;;;7.15;70.74;95398.56;4160108;28;20049;-74
2022/12/30 03:16:47;;;;;;;100.68;56.58;;;;;;;7.06;70.94;95400.13;4159722;28;20045;-74
2022/12/30 03:18:50;;;;;;;96.72;53.97;;;;;;;6.97;71.79;95395.66;4153455;28;20179;-75
2022/12/30 03:20:52;;;;;;;101.65;58.30;;;;;;;6.97;71.72;95400.84;4171678;28;20478;-74
2022/12/30 03:27:36;;;;;;;97.40;56.03;;;;;;;7.06;71.23;95400.13;4178743;28;20164;-76
2022/12/30 03:29:49;;;;;;;95.68;57.03;;;;;;;7.06;70.42;95394.91;4177979;28;20134;-74
2022/12/30 03:31:52;;;;;;;100.65;57.40;;;;;;;7.12;71.04;95399.66;4153167;28;20088;-74
2022/12/30 03:33:54;;;;;;;94.47;55.57;;;;;;;7.12;70.69;95402.25;4159804;28;20053;-75
2022/12/30 03:36:02;;;;;;;96.85;56.22;;;;;;;6.65;71.67;95401.56;4171775;28;20298;-75
2022/12/30 03:38:04;;;;;;;105.90;58.45;;;;;;;6.30;72.80;95405.09;4171042;28;20502;-75
2022/12/30 03:40:10;;;;;;;102.93;57.28;;;;;;;6.19;73.67;95409.41;4152892;28;20053;-75
2022/12/30 03:42:13;;;;;;;100.88;57.83;;;;;;;6.33;74.00;95411.81;4177544;28;20059;-75
2022/12/30 03:44:17;;;;;;;104.80;57.42;;;;;;;6.46;73.58;95411.72;4166057;28;20145;-74
2022/12/30 03:46:20;;;;;;;101.63;57.50;;;;;;;6.59;72.98;95412.44;4159111;28;20584;-74
2022/12/30 03:48:21;;;;;;;103.05;60.28;;;;;;;6.70;72.71;95409.03;4177266;28;20053;-75
2022/12/30 03:50:23;;;;;;;100.40;59.33;;;;;;;6.78;72.29;95413.66;4177633;28;20057;-75
2022/12/30 03:52:25;;;;;;;100.25;55.63;;;;;;;6.82;72.19;95397.66;4177293;28;20060;-74
2022/12/30 03:54:27;;;;;;;100.60;56.75;;;;;;;6.91;71.75;95407.38;4158228;28;20076;-74
2022/12/30 03:56:28;;;;;;;95.57;56.42;;;;;;;6.96;71.42;95410.44;4165851;28;20546;-74
2022/12/30 03:58:30;;;;;;;96.50;56.92;;;;;;;6.93;71.65;95418.50;4177724;28;20056;-75
2022/12/30 04:00:32;;;;;;;109.25;58.03;;;;;;;6.83;71.32;95414.94;4174616;28;20463;-74
2022/12/30 04:02:34;;;;;;;102.90;59.00;;;;;;;6.78;71.37;95416.25;4174015;28;20123;-74
2022/12/30 04:04:36;;;;;;;97.85;57.78;;;;;;;6.76;72.07;95419.78;4177451;28;20401;-74
2022/12/30 04:06:38;;;;;;;98.05;57.60;;;;;;;6.78;71.91;95413.66;4175269;28;20550;-74
2022/12/30 04:08:39;;;;;;;91.97;56.65;;;;;;;6.80;72.11;95423.00;4173328;28;20107;-75
2022/12/30 04:10:41;;;;;;;98.38;56.03;;;;;;;6.84;71.61;95427.03;4177007;28;20483;-74
2022/12/30 04:12:43;;;;;;;96.57;57.25;;;;;;;6.87;71.37;95421.56;4178388;28;20048;-74
2022/12/30 04:14:44;;;;;;;97.25;56.97;;;;;;;6.86;71.65;95426.88;4172046;28;20461;-75
2022/12/30 04:16:46;;;;;;;99.60;56.92;;;;;;;6.87;71.61;95425.97;4176701;28;20114;-75
2022/12/30 04:18:48;;;;;;;95.75;54.20;;;;;;;6.94;71.00;95430.56;4168870;28;20060;-75
2022/12/30 04:20:50;;;;;;;98.53;56.20;;;;;;;6.96;71.34;95431.28;4171581;28;20067;-72
2022/12/30 04:22:56;;;;;;;101.80;57.53;;;;;;;6.86;71.47;95429.50;4172166;28;20124;-74
2022/12/30 04:24:58;;;;;;;97.85;59.42;;;;;;;6.77;71.82;95436.25;4176399;28;20053;-73
2022/12/30 04:26:59;;;;;;;99.70;56.92;;;;;;;6.73;72.14;95434.81;4169332;28;20488;-74
2022/12/30 04:29:01;;;;;;;96.15;54.47;;;;;;;6.76;72.25;95439.81;4173600;28;20365;-73
2022/12/30 04:31:03;;;;;;;93.63;51.40;;;;;;;6.73;72.15;95442.63;4160452;28;20083;-73
2022/12/30 04:33:05;;;;;;;93.32;51.72;;;;;;;6.67;72.05;95430.09;4160637;28;20115;-75
2022/12/30 04:35:07;;;;;;;88.75;49.92;;;;;;;6.73;71.91;95445.22;4160660;28;20061;-73
2022/12/30 04:37:09;;;;;;;86.20;50.50;;;;;;;6.75;71.75;95438.13;4160765;28;20496;-73
2022/12/30 04:39:11;;;;;;;85.15;48.20;;;;;;;6.67;71.65;95445.72;4160602;28;20123;-74
2022/12/30 04:41:13;;;;;;;85.68;47.97;;;;;;;6.71;71.53;95447.13;4171451;28;20050;-74
2022/12/30 04:43:14;;;;;;;79.38;47.78;;;;;;;6.74;71.53;95441.69;4176482;28;20057;-73
2022/12/30 04:45:16;;;;;;;72.32;45.58;;;;;;;6.79;71.28;95443.94;4158964;28;20117;-73
2022/12/30 04:47:18;;;;;;;77.28;46.17;;;;;;;6.82;70.94;95444.53;4175553;28;20538;-75
2022/12/30 04:49:20;;;;;;;79.35;46.28;;;;;;;6.83;70.53;95445.38;4177022;28;20368;-74
2022/12/30 04:51:22;;;;;;;80.28;47.97;;;;;;;6.81;70.17;95448.09;4174172;28;20064;-74
2022/12/30 04:53:23;;;;;;;76.55;47.13;;;;;;;6.80;70.59;95445.59;4160167;28;20065;-74
2022/12/30 04:55:25;;;;;;;76.28;46.65;;;;;;;6.76;70.55;95453.66;4159686;28;20065;-75
2022/12/30 04:57:27;;;;;;;75.45;45.88;;;;;;;6.74;70.59;95447.72;4173227;28;20163;-74
2022/12/30 04:59:29;;;;;;;75.25;44.47;;;;;;;6.72;71.20;95448.78;4165930;28;20055;-76
2022/12/30 05:01:31;;;;;;;69.65;40.97;;;;;;;6.70;70.74;95450.69;4175675;28;20131;-75
2022/12/30 05:03:32;;;;;;;66.70;40.55;;;;;;;6.63;70.28;95454.72;4172940;28;20649;-75
2022/12/30 05:05:35;;;;;;;68.53;40.55;;;;;;;6.60;70.60;95453.16;4167093;28;20461;-75
2022/12/30 05:07:37;;;;;;;60.33;37.92;;;;;;;6.59;70.10;95455.88;4158381;28;20144;-75
2022/12/30 05:09:38;;;;;;;64.20;38.78;;;;;;;6.56;70.69;95456.94;4173485;28;20064;-74
2022/12/30 05:11:40;;;;;;;70.70;40.47;;;;;;;6.51;70.45;95466.88;4175539;28;20060;-75
2022/12/30 05:13:42;;;;;;;66.40;39.42;;;;;;;6.41;70.65;95456.31;4158434;28;20156;-74
2022/12/30 05:15:47;;;;;;;66.38;38.42;;;;;;;6.42;70.59;95460.56;4173719;28;20160;-74
2022/12/30 05:17:49;;;;;;;63.67;36.33;;;;;;;6.44;71.35;95460.47;4174449;28;20110;-75
2022/12/30 05:19:51;;;;;;;66.05;39.33;;;;;;;6.50;70.55;95468.63;4176596;28;20063;-74
2022/12/30 05:21:53;;;;;;;68.93;40.28;;;;;;;6.51;70.51;95472.88;4175996;28;20462;-74
2022/12/30 05:26:16;;;;;;;65.95;39.35;;;;;;;6.54;69.79;95462.25;4175806;28;20443;-74
2022/12/30 05:28:17;;;;;;;60.22;38.63;;;;;;;6.59;70.56;95474.09;4175921;28;20152;-74
2022/12/30 05:30:19;;;;;;;61.97;39.58;;;;;;;6.52;70.20;95465.94;4175636;28;20072;-75
2022/12/30 05:32:21;;;;;;;63.92;39.00;;;;;;;6.48;70.56;95475.75;4159612;28;20108;-74
2022/12/30 05:34:23;;;;;;;66.60;39.10;;;;;;;6.41;70.24;95482.34;4168196;28;20126;-75
2022/12/30 05:36:25;;;;;;;66.00;40.45;;;;;;;6.35;70.66;95473.22;4165712;28;20049;-74
2022/12/30 05:38:27;;;;;;;68.90;39.08;;;;;;;6.34;71.13;95473.31;4160841;28;20058;-76
2022/12/30 05:40:28;;;;;;;61.75;39.55;;;;;;;6.42;70.94;95483.19;4161361;28;20136;-75
2022/12/30 05:42:30;;;;;;;61.60;38.22;;;;;;;6.44;70.49;95476.91;4175060;28;20130;-75
2022/12/30 05:44:32;;;;;;;70.80;42.38;;;;;;;6.42;70.77;95490.97;4165002;28;20112;-76
2022/12/30 05:46:33;;;;;;;71.40;42.50;;;;;;;6.40;70.95;95490.28;4161470;28;20059;-74
2022/12/30 05:48:35;;;;;;;77.50;47.67;;;;;;;6.34;70.66;95488.94;4170671;28;20050;-74
2022/12/30 05:50:38;;;;;;;80.63;46.35;;;;;;;6.30;70.75;95485.75;4160428;28;20096;-76
2022/12/30 05:52:40;;;;;;;75.55;43.22;;;;;;;6.32;70.74;95488.22;4160194;28;20101;-76
2022/12/30 05:54:42;;;;;;;81.75;50.63;;;;;;;6.30;70.76;95490.09;4162389;28;20132;-73
2022/12/30 05:56:44;;;;;;;79.32;49.70;;;;;;;6.27;71.09;95490.34;4170473;28;20046;-73
2022/12/30 05:58:46;;;;;;;78.97;48.08;;;;;;;6.28;70.96;95490.25;4160011;28;20140;-76
2022/12/30 06:00:47;;;;;;;88.88;51.88;;;;;;;6.26;70.91;95493.88;4170305;28;20079;-76
2022/12/30 06:02:49;;;;;;;81.43;48.00;;;;;;;6.29;71.02;95485.84;4174244;28;20124;-74
2022/12/30 06:04:51;;;;;;;86.65;50.35;;;;;;;6.24;70.32;95494.00;4174667;28;20049;-74
2022/12/30 06:06:52;;;;;;;89.97;52.33;;;;;;;5.89;71.35;95486.97;4167844;28;20095;-76
2022/12/30 06:08:54;;;;;;;86.68;50.50;;;;;;;5.85;71.86;95488.16;4175356;28;20064;-74
2022/12/30 06:10:56;;;;;;;84.30;48.95;;;;;;;5.90;72.00;95491.22;4175850;28;20053;-76
2022/12/30 06:12:58;;;;;;;80.57;48.97;;;;;;;5.95;72.61;95491.75;4176025;28;20134;-73
2022/12/30 06:14:59;;;;;;;81.38;49.28;;;;;;;6.02;72.32;95492.13;4177478;28;20511;-74
2022/12/30 06:17:01;;;;;;;82.32;52.88;;;;;;;6.12;71.73;95492.31;4177816;28;20072;-75
2022/12/30 06:19:03;;;;;;;85.28;49.35;;;;;;;6.15;71.44;95492.06;4177965;28;20085;-76
2022/12/30 06:21:05;;;;;;;82.90;47.97;;;;;;;6.15;71.54;95497.25;4179517;28;20098;-79
2022/12/30 06:23:07;;;;;;;69.78;44.80;;;;;;;6.14;71.41;95491.25;4169922;28;20456;-77
2022/12/30 06:25:09;;;;;;;71.97;44.33;;;;;;;6.03;71.60;95493.81;4163283;28;20068;-75
2022/12/30 06:27:11;;;;;;;80.88;47.03;;;;;;;6.02;71.52;95497.31;4178135;28;20049;-75
2022/12/30 06:29:13;;;;;;;71.55;44.80;;;;;;;6.03;71.43;95496.41;4178693;28;20076;-77
2022/12/30 06:31:14;;;;;;;71.13;42.78;;;;;;;6.15;71.50;95502.47;4179122;28;20076;-74
2022/12/30 06:33:17;;;;;;;71.13;42.10;;;;;;;6.17;71.27;95497.16;4160260;28;20054;-78
2022/12/30 06:35:19;;;;;;;72.55;42.72;;;;;;;6.25;71.06;95500.03;4178240;28;20057;-75
2022/12/30 06:37:20;;;;;;;74.25;46.25;;;;;;;6.29;71.15;95510.09;4178320;28;20048;-72
2022/12/30 06:39:22;;;;;;;72.10;44.72;;;;;;;6.28;71.24;95507.59;4169121;28;20061;-74
2022/12/30 06:41:24;;;;;;;76.07;45.60;;;;;;;6.34;71.28;95512.34;4175340;28;20100;-75
2022/12/30 06:43:26;;;;;;;68.68;44.60;;;;;;;6.28;71.11;95513.66;4177402;28;20076;-76
2022/12/30 06:45:27;;;;;;;77.07;45.40;;;;;;;6.23;71.43;95504.53;4178760;28;20056;-74
2022/12/30 06:47:30;;;;;;;72.53;43.72;;;;;;;6.30;71.68;95508.31;4178006;28;20586;-76
2022/12/30 06:49:32;;;;;;;72.47;43.03;;;;;;;6.35;71.27;95508.81;4177794;28;20056;-72
2022/12/30 06:51:34;;;;;;;66.28;43.63;;;;;;;6.41;71.44;95510.13;4178177;28;20284;-74
2022/12/30 06:53:36;;;;;;;70.35;44.80;;;;;;;6.47;71.41;95513.09;4178167;28;20057;-75
2022/12/30 06:55:38;;;;;;;76.60;45.60;;;;;;;6.57;71.16;95518.47;4178427;28;20531;-77
2022/12/30 06:57:40;;;;;;;72.55;43.55;;;;;;;6.63;70.58;95517.19;4165502;28;20061;-75
2022/12/30 06:59:42;;;;;;;73.20;44.60;;;;;;;6.73;70.56;95515.53;4165246;28;20152;-74
2022/12/30 07:01:43;;;;;;;78.43;44.95;;;;;;;6.83;70.16;95518.28;4178289;28;20372;-75
2022/12/30 07:03:45;;;;;;;92.97;50.83;;;;;;;6.91;70.17;95508.13;4177802;28;20490;-76
2022/12/30 07:05:47;;;;;;;107.25;56.95;;;;;;;7.05;69.74;95522.69;4179137;28;20132;-74
2022/12/30 07:07:48;;;;;;;88.22;49.17;;;;;;;7.09;69.45;95518.91;4178241;28;20061;-75
2022/12/30 07:09:51;;;;;;;76.07;46.85;;;;;;;7.09;68.83;95517.13;4177705;28;20121;-74
2022/12/30 07:11:52;;;;;;;73.38;45.50;;;;;;;7.11;68.91;95519.63;4167110;28;20057;-73
2022/12/30 07:13:54;;;;;;;68.68;45.00;;;;;;;7.14;68.81;95521.97;4163193;28;20050;-74
2022/12/30 07:15:56;;;;;;;76.50;45.28;;;;;;;7.21;68.39;95527.56;4177971;28;20049;-74
2022/12/30 07:17:58;;;;;;;75.35;45.35;;;;;;;7.18;68.27;95521.66;4177522;28;20045;-76
2022/12/30 07:19:59;;;;;;;71.25;45.42;;;;;;;7.20;68.46;95518.09;4167478;28;20069;-75
2022/12/30 07:22:01;;;;;;;73.72;43.80;;;;;;;7.33;68.47;95529.22;4145181;28;20125;-74
2022/12/30 07:24:03;;;;;;;69.68;41.53;;;;;;;7.44;67.45;95531.81;4177524;28;20049;-73
2022/12/30 07:26:04;;;;;;;73.28;43.15;;;;;;;7.50;67.29;95538.34;4169342;28;20094;-76
2022/12/30 07:28:06;;;;;;;67.40;40.80;;;;;;;7.46;67.85;95535.13;4171253;28;20068;-75
2022/12/30 07:30:08;;;;;;;67.75;40.53;;;;;;;7.50;67.33;95540.94;4158099;28;20058;-75
2022/12/30 07:32:10;;;;;;;67.47;41.67;;;;;;;7.51;67.53;95538.22;4176512;28;20635;-76
2022/12/30 07:34:12;;;;;;;67.88;41.38;;;;;;;7.54;67.59;95534.53;4178013;28;20053;-76
2022/12/30 07:36:14;;;;;;;63.10;41.25;;;;;;;7.61;67.42;95535.72;4168079;28;20453;-74
2022/12/30 07:38:15;;;;;;;65.78;40.50;;;;;;;7.65;66.99;95533.69;4160550;28;20057;-76
2022/12/30 07:40:17;;;;;;;66.03;40.95;;;;;;;7.84;67.47;95538.31;4174932;28;20061;-78
2022/12/30 07:42:19;;;;;;;64.95;38.35;;;;;;;7.99;67.75;95534.47;4168562;28;20057;-76
2022/12/30 07:44:21;;;;;;;68.30;41.33;;;;;;;8.02;66.76;95523.78;4177559;28;20076;-76
2022/12/30 07:46:22;;;;;;;79.43;41.78;;;;;;;8.10;66.82;95531.81;4145914;28;20644;-76
2022/12/30 07:48:24;;;;;;;75.07;43.05;;;;;;;8.12;65.30;95531.72;4176908;28;20048;-74
2022/12/30 07:50:26;;;;;;;71.82;42.05;;;;;;;8.25;65.56;95536.75;4177520;28;20063;-79
2022/12/30 07:52:28;;;;;;;71.82;42.28;;;;;;;8.26;64.81;95544.47;4159170;28;20095;-77
2022/12/30 07:54:29;;;;;;;72.10;41.20;;;;;;;8.19;65.17;95548.53;4163516;28;20519;-75
2022/12/30 07:56:31;;;;;;;67.07;40.58;;;;;;;8.09;65.73;95545.84;4177312;28;20456;-76
2022/12/30 07:58:33;;;;;;;67.95;43.90;;;;;;;8.07;65.98;95537.31;4172160;28;20485;-77
2022/12/30 08:00:35;;;;;;;68.47;41.97;;;;;;;8.08;65.83;95538.94;4170854;28;20056;-76
2022/12/30 08:02:38;;;;;;;71.63;42.95;;;;;;;8.21;65.56;95544.00;4175915;28;20534;-75
2022/12/30 08:04:40;;;;;;;;;;;;;;;8.26;65.67;95541.88;4177881;28;20075;-75
2022/12/30 08:06:53;;;;;;;67.10;41.28;;;;;;;8.29;65.68;95535.56;4169085;28;19927;-76
2022/12/30 08:08:55;;;;;;;69.00;41.05;;;;;;;8.37;65.50;95533.16;4176987;28;20280;-76
2022/12/30 08:10:57;;;;;;;70.50;43.08;;;;;;;8.39;64.70;95537.31;4159564;28;20057;-75
2022/12/30 08:12:59;;;;;;;67.95;43.33;;;;;;;8.37;64.45;95536.59;4175443;28;20053;-76
2022/12/30 08:15:01;;;;;;;74.00;43.22;;;;;;;8.40;64.84;95533.75;4177431;28;20057;-76
2022/12/30 08:17:03;;;;;;;75.55;42.40;;;;;;;8.47;65.27;95518.41;4174474;28;20085;-74
2022/12/30 08:19:05;;;;;;;70.22;43.97;;;;;;;8.58;65.51;95520.16;4175256;28;20061;-74
2022/12/30 08:21:09;;;;;;;79.78;43.85;;;;;;;8.66;64.67;95519.53;4177435;28;20080;-74
2022/12/30 08:23:11;;;;;;;73.35;46.05;;;;;;;8.72;64.41;95529.47;4176762;28;20125;-74
2022/12/30 08:25:13;;;;;;;71.75;45.95;;;;;;;8.70;63.85;95528.75;4173120;28;20053;-78
2022/12/30 08:27:15;;;;;;;72.63;45.78;;;;;;;8.72;64.48;95527.69;4175395;28;20097;-75
2022/12/30 08:29:16;;;;;;;79.30;45.50;;;;;;;8.66;63.73;95535.19;4177171;28;20061;-77
2022/12/30 08:31:23;;;;;;;74.47;46.95;;;;;;;8.37;65.08;95527.94;4176851;28;20515;-75
2022/12/30 08:33:25;;;;;;;73.30;45.15;;;;;;;8.40;65.43;95530.28;4176149;28;20114;-75
2022/12/30 08:35:27;;;;;;;82.82;49.28;;;;;;;8.55;65.53;95530.84;4176883;28;20053;-78
2022/12/30 08:37:29;;;;;;;76.05;47.53;;;;;;;8.41;65.13;95537.22;4175838;28;20246;-77
2022/12/30 08:39:30;;;;;;;76.88;45.92;;;;;;;8.37;65.27;95523.53;4176499;28;20061;-75
2022/12/30 08:41:35;;;;;;;76.22;47.33;;;;;;;8.13;65.57;95534.19;4159242;28;20417;-74
2022/12/30 08:43:37;;;;;;;68.95;45.45;;;;;;;7.92;66.36;95534.13;4170908;28;20102;-73
2022/12/30 08:45:38;;;;;;;70.43;44.85;;;;;;;8.05;65.90;95528.75;4169326;28;20334;-74
2022/12/30 08:47:40;;;;;;;71.43;41.90;;;;;;;8.02;65.64;95533.38;4177232;28;20117;-75
2022/12/30 08:49:42;;;;;;;71.55;45.53;;;;;;;7.69;66.76;95546.38;4162168;28;20057;-76
2022/12/30 08:51:43;;;;;;;70.57;44.83;;;;;;;7.68;66.57;95539.53;4161724;28;20056;-77
2022/12/30 08:53:45;;;;;;;70.10;45.28;;;;;;;7.60;67.26;95536.69;4169531;28;20423;-76
2022/12/30 08:55:47;;;;;;;73.30;44.60;;;;;;;7.65;67.10;95531.91;4164853;28;20139;-77
2022/12/30 08:57:49;;;;;;;78.50;46.10;;;;;;;7.61;66.61;95540.94;4160479;28;20125;-76
2022/12/30 08:59:51;;;;;;;66.32;41.83;;;;;;;7.73;67.21;95536.53;4166179;28;20334;-78
2022/12/30 09:01:53;;;;;;;62.95;36.97;;;;;;;8.08;66.49;95544.16;4176398;28;20061;-77
2022/12/30 09:03:56;;;;;;;64.45;41.05;;;;;;;8.19;65.68;95541.53;4176399;28;20056;-77
2022/12/30 09:05:57;;;;;;;61.45;40.22;;;;;;;8.19;65.62;95536.31;4176069;28;20057;-73
2022/12/30 09:08:03;;;;;;;62.63;40.15;;;;;;;8.16;65.66;95531.34;4176066;28;20067;-76
2022/12/30 09:10:10;;;;;;;70.70;42.10;;;;;;;8.34;65.58;95529.00;4176025;28;20477;-74
2022/12/30 09:12:12;;;;;;;69.70;40.90;;;;;;;8.46;64.99;95524.59;4176313;28;20122;-74
2022/12/30 09:14:15;;;;;;;61.35;39.55;;;;;;;8.45;64.53;95524.72;4175446;28;20076;-75
2022/12/30 09:16:20;;;;;;;66.00;39.33;;;;;;;8.53;64.83;95523.13;4175929;28;20049;-77
2022/12/30 09:18:23;;;;;;;64.07;40.95;;;;;;;8.28;64.76;95526.91;4176144;28;20049;-76
2022/12/30 09:20:25;;;;;;;60.30;38.78;;;;;;;8.34;64.90;95521.16;4158536;28;20061;-77
2022/12/30 09:22:27;;;;;;;62.97;39.47;;;;;;;8.59;64.58;95527.03;4175517;28;20049;-77
2022/12/30 09:24:28;;;;;;;63.60;40.65;;;;;;;8.75;64.47;95514.34;4175871;28;20069;-76
2022/12/30 09:26:31;;;;;;;63.15;42.22;;;;;;;8.87;64.01;95515.13;4176400;28;20056;-75
2022/12/30 09:28:33;;;;;;;71.25;40.60;;;;;;;8.90;63.35;95522.69;4174842;28;20567;-74
2022/12/30 09:30:34;;;;;;;59.10;38.92;;;;;;;8.60;64.04;95524.31;4174155;28;20080;-77
2022/12/30 09:32:36;;;;;;;68.82;42.88;;;;;;;8.60;64.45;95518.22;4174663;28;20616;-77
2022/12/30 09:34:38;;;;;;;67.10;40.63;;;;;;;8.41;64.50;95521.56;4174489;28;20102;-78
2022/12/30 09:36:39;;;;;;;69.40;41.92;;;;;;;8.40;65.13;95512.03;4172488;28;20057;-78
2022/12/30 09:38:41;;;;;;;73.88;42.28;;;;;;;8.37;64.87;95520.13;4174239;28;20130;-76
2022/12/30 09:40:46;;;;;;;67.20;41.20;;;;;;;8.44;64.86;95513.47;4157872;28;20049;-74
2022/12/30 09:45:27;;;;;;;65.00;39.53;;;;;;;8.19;65.98;95502.38;4149607;28;20502;-75
2022/12/30 09:47:53;;;;;;;74.30;39.40;;;;;;;8.36;65.62;95494.94;4176020;28;20140;-74
2022/12/30 09:50:03;;;;;;;61.00;39.15;;;;;;;8.67;64.10;95490.66;4149982;28;20061;-73
2022/12/30 09:52:13;;;;;;;64.35;39.97;;;;;;;8.88;64.46;95492.44;4179180;28;20087;-75
2022/12/30 09:54:17;;;;;;;60.70;38.50;;;;;;;9.18;64.02;95489.00;4160829;28;20061;-77
2022/12/30 09:56:26;;;;;;;59.25;38.78;;;;;;;9.45;62.80;95477.16;4149164;28;20128;-75
2022/12/30 09:58:31;;;;;;;67.80;39.00;;;;;;;9.70;62.02;95488.91;4153055;28;20266;-75
2022/12/30 10:00:34;;;;;;;57.22;38.15;;;;;;;9.95;61.25;95484.97;4158946;28;20057;-74
2022/12/30 10:02:48;;;;;;;54.05;37.78;;;;;;;10.21;60.65;95475.59;4176355;28;21606;-75
2022/12/30 10:04:50;;;;;;;58.85;34.97;;;;;;;10.28;60.17;95464.56;4166374;28;20484;-77
2022/12/30 10:07:07;;;;;;;55.97;34.58;;;;;;;10.21;59.74;95469.53;4170582;28;20045;-75
2022/12/30 10:09:30;;;;;;;56.95;35.13;;;;;;;10.40;60.03;95468.75;4161378;28;20054;-78
2022/12/30 10:12:13;;;;;;;52.78;34.30;;;;;;;10.47;59.18;95471.63;4161366;28;20097;-77
2022/12/30 10:14:38;;;;;;;56.40;35.80;;;;;;;10.34;59.41;95469.28;4158430;28;20056;-76
2022/12/30 10:16:55;;;;;;;62.03;36.83;;;;;;;10.42;58.95;95464.19;4167823;28;20126;-75
2022/12/30 10:19:15;;;;;;;58.40;36.38;;;;;;;10.31;59.36;95465.16;4174823;28;20132;-75
2022/12/30 10:21:41;;;;;;;55.30;36.15;;;;;;;9.93;59.69;95458.09;4176899;28;20131;-74
2022/12/30 10:24:03;;;;;;;55.70;36.45;;;;;;;9.91;60.36;95457.41;4158308;28;20409;-76
2022/12/30 10:26:12;;;;;;;63.00;37.00;;;;;;;9.92;59.91;95451.22;4176951;28;20060;-77
2022/12/30 10:28:16;;;;;;;59.53;36.95;;;;;;;9.72;61.16;95455.56;4169946;28;20052;-78
2022/12/30 10:30:20;;;;;;;56.25;35.72;;;;;;;9.91;60.43;95454.78;4159094;28;20053;-75